Route Details

Aircraft Information
Group: Hub to Hub
Types: B744, MD11, B763, B762, B752, B738
Route Data
Distance: 392nm
Duration: 1h 44m
Origin METAR: KIAD 160052Z 32006KT 10SM FEW024 BKN080 BKN120 19/17 A2998 RMK AO2 SLP151 T01940167
Dest. METAR: KSDF 160056Z 02008KT 10SM FEW045 FEW090 FEW250 OVC300 26/19 A2994 RMK AO2 SLP135 T02560189
Freight Data
(for Aug 16, 2022)
Load Factor:
77%
Manifested Cargo: 74,720lbs
Financial History
Total Freight: 761,662lbs
Average Load: 0lbs/flt
Fuel Used: 107,791lbs
Avg. Fuel Used: 0lbs/flt
Fuel Expense: $132,756
Avg. Fuel Expense: $0
Avg. Fuel Cost: $0/lbs
Total Gross Income: $1,303,162
Pilot Pay: $983
Total Expenses: $171,516
Total Revenue: $996,987
Average Revenue: $0

Capitol Logistics 455




KIAD
Washington Dulles International Airport
Dulles, Virginia
KSDF
Muhammad Ali International Airport
Louisville, Kentucky

Activity Log

Date Flight Route Aircraft Duration
07/14/2022 CPX455 RNLDI4 OTTTO Q68 HVQ UNCKL MAUDD6 B763 1h 11m
03/22/2021 CPX2219 RNLDI4 OTTTO Q68 HVQ UNCKL MAUDD6 B763 1h 25m
09/30/2020 CPX2219 RNLDI4 OTTTO Q68 HVQ UNCKL MAUDD6 B763 1h 41m
01/28/2020 CPX2219 RNLDI4 OTTTO Q68 HVQ UNCKL MAUDD6 B763 1h 34m
01/18/2020 CPX2219 RNLDI4 OTTTO Q68 HVQ UNCKL MAUDD6 B763 1h 44m
11/18/2019 CPX2219 RNLDI4 OTTTO Q68 HVQ UNCKL MAUDD6 B763 1h 31m
03/25/2018 CPX906 RNLDI4 OTTTO Q68 HVQ UNCKL MAUDD4 B744 1h 12m